createdAt,value
2016-08-01T00:00:30.691Z,963.21
2016-08-01T00:01:30.691Z,963.26
2016-08-01T00:02:30.706Z,963.22
2016-08-01T00:03:30.711Z,963.25
2016-08-01T00:04:30.714Z,963.29
2016-08-01T00:05:30.731Z,963.25
2016-08-01T00:06:30.732Z,963.27
2016-08-01T00:07:30.748Z,963.25
2016-08-01T00:08:30.749Z,963.27
2016-08-01T00:09:30.765Z,963.21
2016-08-01T00:10:30.770Z,963.27
2016-08-01T00:11:30.774Z,963.28
2016-08-01T00:12:30.786Z,963.29
2016-08-01T00:13:30.796Z,963.3
2016-08-01T00:14:30.794Z,963.3
2016-08-01T00:15:30.815Z,963.31
2016-08-01T00:16:30.820Z,963.3
2016-08-01T00:17:30.822Z,963.29
2016-08-01T00:19:30.846Z,963.29
2016-08-01T00:20:30.844Z,963.31
2016-08-01T00:21:30.858Z,963.31
2016-08-01T00:22:30.862Z,963.29
2016-08-01T00:23:30.869Z,963.31
2016-08-01T00:24:30.877Z,963.31
2016-08-01T00:25:30.897Z,963.31
2016-08-01T00:26:30.902Z,963.33
2016-08-01T00:27:30.903Z,963.35
2016-08-01T00:28:30.915Z,963.31
2016-08-01T00:29:30.923Z,963.37
2016-08-01T00:30:30.937Z,963.38
2016-08-01T00:31:30.938Z,963.37
2016-08-01T00:32:30.952Z,963.4
2016-08-01T00:34:30.969Z,963.41
2016-08-01T00:35:30.973Z,963.43
2016-08-01T00:36:30.979Z,963.45
2016-08-01T00:37:30.992Z,963.45
2016-08-01T00:38:31.001Z,963.49
2016-08-01T00:39:31.005Z,963.46
2016-08-01T00:40:31.014Z,963.44
2016-08-01T00:41:31.025Z,963.44
2016-08-01T00:42:31.028Z,963.48
2016-08-01T00:43:31.036Z,963.5
2016-08-01T00:44:31.042Z,963.48
2016-08-01T00:45:31.059Z,963.47
2016-08-01T00:46:31.061Z,963.5
2016-08-01T00:47:31.078Z,963.48
2016-08-01T00:49:31.083Z,963.54
2016-08-01T00:50:31.094Z,963.52
2016-08-01T00:51:31.108Z,963.53
2016-08-01T00:52:31.108Z,963.53
2016-08-01T00:53:31.116Z,963.55
2016-08-01T00:54:31.124Z,963.6
2016-08-01T00:55:31.141Z,963.6
2016-08-01T00:56:31.149Z,963.58
2016-08-01T00:57:31.149Z,963.56
2016-08-01T00:58:31.165Z,963.61
2016-08-01T00:59:31.165Z,963.58
2016-08-01T01:00:31.179Z,963.59
2016-08-01T01:01:31.182Z,963.6
2016-08-01T01:02:31.199Z,963.55
2016-08-01T01:04:31.212Z,963.61
2016-08-01T01:05:31.214Z,963.57
2016-08-01T01:06:31.232Z,963.57
2016-08-01T01:07:31.232Z,963.59
2016-08-01T01:08:31.238Z,963.6
2016-08-01T01:09:31.256Z,963.59
2016-08-01T01:10:31.274Z,963.56
2016-08-01T01:11:31.283Z,963.56
2016-08-01T01:12:31.272Z,963.59
2016-08-01T01:13:31.286Z,963.58
2016-08-01T01:14:31.294Z,963.59
2016-08-01T01:15:31.295Z,963.61
2016-08-01T01:16:31.306Z,963.62
2016-08-01T01:17:31.320Z,963.61
2016-08-01T01:19:31.337Z,963.63
2016-08-01T01:20:31.341Z,963.6
2016-08-01T01:21:31.346Z,963.62
2016-08-01T01:22:31.354Z,963.63
2016-08-01T01:23:31.361Z,963.64
2016-08-01T01:24:31.369Z,963.65
2016-08-01T01:25:31.379Z,963.63
2016-08-01T01:26:31.394Z,963.64
2016-08-01T01:27:31.404Z,963.64
2016-08-01T01:28:31.402Z,963.68
2016-08-01T01:29:31.417Z,963.66
2016-08-01T01:30:31.426Z,963.64
2016-08-01T01:31:31.425Z,963.65
2016-08-01T01:32:31.438Z,963.64
2016-08-01T01:34:31.453Z,963.66
2016-08-01T01:35:31.460Z,963.68
2016-08-01T01:36:31.468Z,963.68
2016-08-01T01:37:31.483Z,963.64
2016-08-01T01:38:31.482Z,963.66
2016-08-01T01:39:31.491Z,963.68
2016-08-01T01:40:31.508Z,963.68
2016-08-01T01:41:31.508Z,963.65
2016-08-01T01:42:31.518Z,963.67
2016-08-01T01:43:31.524Z,963.67
2016-08-01T01:44:31.538Z,963.65
2016-08-01T01:45:31.550Z,963.64
2016-08-01T01:46:31.553Z,963.67
2016-08-01T01:47:31.564Z,963.66
2016-08-01T01:48:31.564Z,963.63
2016-08-01T01:49:31.580Z,963.66
2016-08-01T01:50:31.588Z,963.64
2016-08-01T01:51:31.603Z,963.62
2016-08-01T01:52:31.597Z,963.67
2016-08-01T01:53:31.612Z,963.65
2016-08-01T01:54:31.621Z,963.63
2016-08-01T01:55:31.621Z,963.64
2016-08-01T01:56:31.638Z,963.65
2016-08-01T01:57:31.646Z,963.63
2016-08-01T01:58:31.654Z,963.63
2016-08-01T01:59:31.653Z,963.64
2016-08-01T02:00:31.661Z,963.6
2016-08-01T02:01:31.669Z,963.57
2016-08-01T02:02:31.686Z,963.57
2016-08-01T02:03:31.694Z,963.6
2016-08-01T02:04:31.708Z,963.56
2016-08-01T02:05:31.706Z,963.56
2016-08-01T02:06:31.710Z,963.56
2016-08-01T02:07:31.741Z,963.59
2016-08-01T02:08:31.726Z,963.58
2016-08-01T02:09:31.732Z,963.57
2016-08-01T02:10:31.749Z,963.55
2016-08-01T02:11:31.748Z,963.53
2016-08-01T02:12:31.766Z,963.54
2016-08-01T02:13:31.769Z,963.56
2016-08-01T02:14:31.781Z,963.55
2016-08-01T02:15:31.783Z,963.55
2016-08-01T02:16:31.799Z,963.61
2016-08-01T02:17:31.803Z,963.58
2016-08-01T02:18:31.815Z,963.59
2016-08-01T02:19:31.825Z,963.61
2016-08-01T02:20:31.824Z,963.64
2016-08-01T02:21:31.841Z,963.67
2016-08-01T02:22:31.848Z,963.73
2016-08-01T02:23:31.848Z,963.73
2016-08-01T02:24:31.865Z,963.73
2016-08-01T02:25:31.871Z,963.73
2016-08-01T02:26:31.872Z,963.76
2016-08-01T02:27:31.879Z,963.77
2016-08-01T02:28:31.900Z,963.8
2016-08-01T02:29:31.903Z,963.81
2016-08-01T02:30:31.907Z,963.85
2016-08-01T02:31:31.920Z,963.87
2016-08-01T02:32:31.930Z,963.87
2016-08-01T02:33:31.930Z,963.87
2016-08-01T02:34:31.947Z,963.9
2016-08-01T02:35:31.948Z,963.91
2016-08-01T02:36:31.952Z,963.92
2016-08-01T02:37:31.973Z,963.94
2016-08-01T02:38:31.977Z,963.93
2016-08-01T02:39:31.977Z,963.94
2016-08-01T02:40:31.984Z,963.93
2016-08-01T02:41:32.004Z,963.98
2016-08-01T02:42:32.002Z,963.96
2016-08-01T02:43:32.020Z,963.97
2016-08-01T02:44:32.021Z,963.96
2016-08-01T02:45:32.034Z,963.97
2016-08-01T02:46:32.037Z,963.99
2016-08-01T02:47:32.050Z,964.01
2016-08-01T02:48:32.051Z,964.05
2016-08-01T02:49:32.070Z,964.04
2016-08-01T02:50:32.078Z,964.08
2016-08-01T02:51:32.076Z,964.09
2016-08-01T02:52:32.082Z,964.08
2016-08-01T02:53:32.096Z,964.12
2016-08-01T02:54:32.112Z,964.16
2016-08-01T02:55:32.115Z,964.16
2016-08-01T02:56:32.117Z,964.2
2016-08-01T02:57:32.125Z,964.22
2016-08-01T02:58:32.141Z,964.25
2016-08-01T02:59:32.143Z,964.23
2016-08-01T03:00:32.151Z,964.24
2016-08-01T03:01:32.164Z,964.25
2016-08-01T03:02:32.175Z,964.29
2016-08-01T03:03:32.175Z,964.25
2016-08-01T03:04:32.197Z,964.3
2016-08-01T03:05:32.190Z,964.31
2016-08-01T03:06:32.198Z,964.31
2016-08-01T03:07:32.217Z,964.39
2016-08-01T03:08:32.217Z,964.38
2016-08-01T03:09:32.228Z,964.36
2016-08-01T03:10:32.233Z,964.36
2016-08-01T03:11:32.247Z,964.4
2016-08-01T03:12:32.255Z,964.38
2016-08-01T03:13:32.258Z,964.41
2016-08-01T03:14:32.263Z,964.42
2016-08-01T03:15:32.270Z,964.42
2016-08-01T03:16:32.278Z,964.45
2016-08-01T03:17:32.298Z,964.42
2016-08-01T03:18:32.304Z,964.43
2016-08-01T03:19:32.312Z,964.45
2016-08-01T03:20:32.313Z,964.47
2016-08-01T03:21:32.323Z,964.43
2016-08-01T03:22:32.326Z,964.46
2016-08-01T03:23:32.337Z,964.44
2016-08-01T03:24:32.352Z,964.44
2016-08-01T03:25:32.354Z,964.46
2016-08-01T03:26:32.362Z,964.44
2016-08-01T03:27:32.375Z,964.45
2016-08-01T03:28:32.375Z,964.47
2016-08-01T03:29:32.391Z,964.45
2016-08-01T03:30:32.392Z,964.47
2016-08-01T03:31:32.407Z,964.47
2016-08-01T03:32:32.410Z,964.46
2016-08-01T03:33:32.425Z,964.47
2016-08-01T03:34:32.427Z,964.46
2016-08-01T03:35:32.435Z,964.44
2016-08-01T03:36:32.448Z,964.5
2016-08-01T03:37:32.452Z,964.5
2016-08-01T03:38:32.459Z,964.51
2016-08-01T03:39:32.469Z,964.52
2016-08-01T03:40:32.481Z,964.53
2016-08-01T03:41:32.484Z,964.56
2016-08-01T03:42:32.500Z,964.55
2016-08-01T03:43:32.506Z,964.57
2016-08-01T03:44:32.508Z,964.63
2016-08-01T03:45:32.513Z,964.62
2016-08-01T03:46:32.528Z,964.58
2016-08-01T03:47:32.540Z,964.6
2016-08-01T03:48:32.548Z,964.58
2016-08-01T03:49:32.603Z,964.58
2016-08-01T03:50:32.564Z,964.6
2016-08-01T03:51:32.563Z,964.6
2016-08-01T03:52:32.571Z,964.56
2016-08-01T03:53:32.586Z,964.58
2016-08-01T03:54:32.595Z,964.59
2016-08-01T03:55:32.594Z,964.61
2016-08-01T03:56:32.604Z,964.61
2016-08-01T03:57:32.624Z,964.63
2016-08-01T03:58:32.619Z,964.59
2016-08-01T03:59:32.627Z,964.64
2016-08-01T04:00:32.637Z,964.62
2016-08-01T04:01:32.651Z,964.61
2016-08-01T04:02:32.652Z,964.61
2016-08-01T04:03:32.661Z,964.57
2016-08-01T04:04:32.675Z,964.62
2016-08-01T04:05:32.684Z,964.62
2016-08-01T04:06:32.689Z,964.61
2016-08-01T04:07:32.699Z,964.59
2016-08-01T04:08:32.708Z,964.62
2016-08-01T04:09:32.714Z,964.62
2016-08-01T04:10:32.717Z,964.61
2016-08-01T04:11:32.732Z,964.64
2016-08-01T04:12:32.738Z,964.62
2016-08-01T04:13:32.741Z,964.63
2016-08-01T04:14:32.751Z,964.67
2016-08-01T04:15:32.758Z,964.69
2016-08-01T04:16:32.764Z,964.7
2016-08-01T04:17:32.781Z,964.68
2016-08-01T04:18:32.779Z,964.73
2016-08-01T04:19:32.796Z,964.75
2016-08-01T04:20:32.802Z,964.8
2016-08-01T04:21:32.814Z,964.82
2016-08-01T04:22:32.814Z,964.78
2016-08-01T04:23:32.822Z,964.78
2016-08-01T04:24:32.838Z,964.78
2016-08-01T04:25:32.841Z,964.76
2016-08-01T04:26:32.843Z,964.8
2016-08-01T04:27:32.854Z,964.77
2016-08-01T04:28:32.859Z,964.79
2016-08-01T04:29:32.868Z,964.8
2016-08-01T04:30:32.881Z,964.82
2016-08-01T04:31:32.884Z,964.78
2016-08-01T04:32:32.892Z,964.81
2016-08-01T04:33:32.911Z,964.79
2016-08-01T04:34:32.911Z,964.83
2016-08-01T04:35:32.915Z,964.85
2016-08-01T04:36:32.930Z,964.8
2016-08-01T04:37:32.939Z,964.83
2016-08-01T04:38:32.941Z,964.81
2016-08-01T04:39:32.950Z,964.85
2016-08-01T04:40:32.960Z,964.84
2016-08-01T04:41:32.973Z,964.83
2016-08-01T04:42:32.980Z,964.84
2016-08-01T04:43:32.993Z,964.8
2016-08-01T04:44:32.997Z,964.83
2016-08-01T04:45:33.006Z,964.8
2016-08-01T04:46:33.004Z,964.8
2016-08-01T04:47:33.021Z,964.83
2016-08-01T04:48:33.030Z,964.84
2016-08-01T04:50:33.043Z,964.83
2016-08-01T04:51:33.047Z,964.86
2016-08-01T04:52:33.055Z,964.9
2016-08-01T04:53:33.061Z,964.89
2016-08-01T04:54:33.072Z,964.89
2016-08-01T04:55:33.087Z,964.9
2016-08-01T04:56:33.093Z,964.94
2016-08-01T04:57:33.091Z,964.97
2016-08-01T04:58:33.102Z,964.96
2016-08-01T04:59:33.109Z,964.98
2016-08-01T05:00:33.126Z,964.99
2016-08-01T05:01:33.126Z,964.97
2016-08-01T05:02:33.135Z,964.95
2016-08-01T05:03:33.141Z,964.96
2016-08-01T05:04:33.150Z,964.93
2016-08-01T05:05:33.167Z,964.93
2016-08-01T05:06:33.173Z,964.93
2016-08-01T05:07:33.189Z,964.92
2016-08-01T05:08:33.183Z,964.95
2016-08-01T05:09:33.198Z,964.96
2016-08-01T05:10:33.200Z,964.96
2016-08-01T05:11:33.214Z,964.98
2016-08-01T05:12:33.216Z,964.98
2016-08-01T05:13:33.226Z,964.98
2016-08-01T05:14:33.233Z,964.99
2016-08-01T05:15:33.239Z,964.98
2016-08-01T05:16:33.253Z,965.02
2016-08-01T05:17:33.274Z,965.04
2016-08-01T05:18:33.264Z,965.06
2016-08-01T05:19:33.278Z,965.08
2016-08-01T05:20:33.281Z,965.1
2016-08-01T05:21:33.295Z,965.09
2016-08-01T05:22:33.306Z,965.06
2016-08-01T05:23:33.312Z,965.1
2016-08-01T05:24:33.321Z,965.07
2016-08-01T05:25:33.319Z,965.08
2016-08-01T05:26:33.334Z,965.09
2016-08-01T05:27:33.338Z,965.12
2016-08-01T05:28:33.351Z,965.11
2016-08-01T05:29:33.363Z,965.12
2016-08-01T05:30:33.368Z,965.13
2016-08-01T05:31:33.376Z,965.15
2016-08-01T05:32:33.383Z,965.2
2016-08-01T05:33:33.392Z,965.2
2016-08-01T05:34:33.402Z,965.23
2016-08-01T05:35:33.409Z,965.22
2016-08-01T05:36:33.418Z,965.29
2016-08-01T05:37:33.414Z,965.28
2016-08-01T05:38:33.432Z,965.27
2016-08-01T05:39:33.433Z,965.28
2016-08-01T05:40:33.440Z,965.28
2016-08-01T05:41:33.458Z,965.29
2016-08-01T05:42:33.463Z,965.31
2016-08-01T05:43:33.466Z,965.33
2016-08-01T05:44:33.473Z,965.35
2016-08-01T05:45:33.483Z,965.34
2016-08-01T05:46:33.490Z,965.31
2016-08-01T05:47:33.496Z,965.36
2016-08-01T05:48:33.504Z,965.34
2016-08-01T05:49:33.521Z,965.36
2016-08-01T05:50:33.522Z,965.38
2016-08-01T05:51:33.531Z,965.38
2016-08-01T05:52:33.536Z,965.37
2016-08-01T05:53:33.554Z,965.38
2016-08-01T05:54:33.556Z,965.39
2016-08-01T05:55:33.560Z,965.38
2016-08-01T05:56:33.571Z,965.39
2016-08-01T05:57:33.598Z,965.4
2016-08-01T05:58:33.587Z,965.4
2016-08-01T05:59:33.596Z,965.41
2016-08-01T06:00:33.603Z,965.41
2016-08-01T06:01:33.610Z,965.4
2016-08-01T06:02:33.626Z,965.4
2016-08-01T06:03:33.634Z,965.4
2016-08-01T06:04:33.640Z,965.42
2016-08-01T06:05:33.642Z,965.4
2016-08-01T06:06:33.652Z,965.43
2016-08-01T06:07:33.666Z,965.43
2016-08-01T06:08:33.674Z,965.42
2016-08-01T06:09:33.682Z,965.4
2016-08-01T06:10:33.689Z,965.41
2016-08-01T06:11:33.693Z,965.43
2016-08-01T06:12:33.701Z,965.42
2016-08-01T06:13:33.712Z,965.44
2016-08-01T06:14:33.724Z,965.43
2016-08-01T06:15:33.725Z,965.44
2016-08-01T06:16:33.741Z,965.41
2016-08-01T06:17:33.740Z,965.45
2016-08-01T06:18:33.749Z,965.45
2016-08-01T06:20:33.771Z,965.47
2016-08-01T06:21:33.772Z,965.44
2016-08-01T06:22:33.789Z,965.48
2016-08-01T06:23:33.796Z,965.45
2016-08-01T06:24:33.803Z,965.47
2016-08-01T06:25:33.806Z,965.47
2016-08-01T06:26:33.820Z,965.47
2016-08-01T06:27:33.831Z,965.45
2016-08-01T06:28:33.837Z,965.43
2016-08-01T06:29:33.844Z,965.45
2016-08-01T06:30:33.847Z,965.46
2016-08-01T06:31:33.852Z,965.48
2016-08-01T06:32:33.868Z,965.49
2016-08-01T06:33:33.875Z,965.48
2016-08-01T06:35:33.891Z,965.45
2016-08-01T06:36:33.901Z,965.47
2016-08-01T06:37:33.901Z,965.47
2016-08-01T06:38:33.916Z,965.42
2016-08-01T06:39:33.927Z,965.43
2016-08-01T06:40:33.934Z,965.42
2016-08-01T06:41:33.935Z,965.46
2016-08-01T06:42:33.948Z,965.45
2016-08-01T06:43:33.950Z,965.44
2016-08-01T06:44:33.965Z,965.48
2016-08-01T06:45:33.972Z,965.42
2016-08-01T06:46:33.977Z,965.42
2016-08-01T06:47:33.986Z,965.44
2016-08-01T06:48:33.996Z,965.42
2016-08-01T06:49:34.004Z,965.4
2016-08-01T06:50:34.004Z,965.39
2016-08-01T06:51:34.021Z,965.41
2016-08-01T06:52:34.023Z,965.36
2016-08-01T06:53:34.044Z,965.38
2016-08-01T06:54:34.038Z,965.38
2016-08-01T06:55:34.047Z,965.41
2016-08-01T06:56:34.062Z,965.38
2016-08-01T06:57:34.068Z,965.37
2016-08-01T06:58:34.078Z,965.38
2016-08-01T06:59:34.078Z,965.39
2016-08-01T07:00:34.085Z,965.35
2016-08-01T07:01:34.100Z,965.37
2016-08-01T07:02:34.108Z,965.35
2016-08-01T07:03:34.115Z,965.33
2016-08-01T07:04:34.127Z,965.34
2016-08-01T07:05:34.133Z,965.39
2016-08-01T07:06:34.135Z,965.35
2016-08-01T07:07:34.145Z,965.41
2016-08-01T07:08:34.162Z,965.38
2016-08-01T07:09:34.167Z,965.36
2016-08-01T07:10:34.174Z,965.37
2016-08-01T07:11:34.175Z,965.37
2016-08-01T07:12:34.188Z,965.34
2016-08-01T07:13:34.198Z,965.34
2016-08-01T07:14:34.197Z,965.35
2016-08-01T07:15:34.208Z,965.33
2016-08-01T07:16:34.222Z,965.33
2016-08-01T07:17:34.228Z,965.34
2016-08-01T07:18:34.236Z,965.36
2016-08-01T07:19:34.248Z,965.34
2016-08-01T07:20:34.255Z,965.31
2016-08-01T07:21:34.262Z,965.29
2016-08-01T07:22:34.271Z,965.32
2016-08-01T07:23:34.276Z,965.29
2016-08-01T07:24:34.281Z,965.33
2016-08-01T07:25:34.288Z,965.32
2016-08-01T07:26:34.294Z,965.34
2016-08-01T07:27:34.305Z,965.31
2016-08-01T07:28:34.310Z,965.33
2016-08-01T07:29:34.339Z,965.3
2016-08-01T07:30:34.326Z,965.33
2016-08-01T07:31:34.341Z,965.33
2016-08-01T07:32:34.357Z,965.34
2016-08-01T07:33:34.350Z,965.34
2016-08-01T07:34:34.359Z,965.31
2016-08-01T07:35:34.373Z,965.32
2016-08-01T07:36:34.377Z,965.34
2016-08-01T07:37:34.383Z,965.37
2016-08-01T07:38:34.398Z,965.37
2016-08-01T07:39:34.401Z,965.35
2016-08-01T07:40:34.406Z,965.37
2016-08-01T07:41:34.420Z,965.4
2016-08-01T07:42:34.420Z,965.44
2016-08-01T07:43:34.430Z,965.45
2016-08-01T07:44:34.445Z,965.46
2016-08-01T07:45:34.444Z,965.47
2016-08-01T07:46:34.457Z,965.48
2016-08-01T07:47:34.467Z,965.47
2016-08-01T07:48:34.476Z,965.49
2016-08-01T07:49:34.487Z,965.52
2016-08-01T07:50:34.485Z,965.53
2016-08-01T07:51:34.498Z,965.51
2016-08-01T07:52:34.505Z,965.51
2016-08-01T07:53:34.513Z,965.56
2016-08-01T07:54:34.522Z,965.56
2016-08-01T07:55:34.523Z,965.55
2016-08-01T07:56:34.538Z,965.49
2016-08-01T07:57:34.546Z,965.53
2016-08-01T07:58:34.552Z,965.49
2016-08-01T07:59:34.559Z,965.51
2016-08-01T08:00:34.565Z,965.52
2016-08-01T08:01:34.578Z,965.55
2016-08-01T08:02:34.578Z,965.56
2016-08-01T08:03:34.585Z,965.6
2016-08-01T08:04:34.600Z,965.62
2016-08-01T08:05:34.603Z,965.61
2016-08-01T08:06:34.610Z,965.62
2016-08-01T08:07:34.623Z,965.61
2016-08-01T08:08:34.632Z,965.62
2016-08-01T08:09:34.638Z,965.61
2016-08-01T08:10:34.640Z,965.67
2016-08-01T08:11:34.658Z,965.65
2016-08-01T08:12:34.658Z,965.69
2016-08-01T08:13:34.669Z,965.7
2016-08-01T08:14:34.679Z,965.69
2016-08-01T08:15:34.689Z,965.72
2016-08-01T08:16:34.687Z,965.69
2016-08-01T08:17:34.701Z,965.76
2016-08-01T08:18:34.711Z,965.76
2016-08-01T08:19:34.716Z,965.76
2016-08-01T08:20:34.727Z,965.77
2016-08-01T08:21:34.734Z,965.72
2016-08-01T08:22:34.740Z,965.71
2016-08-01T08:23:34.753Z,965.72
2016-08-01T08:24:34.757Z,965.72
2016-08-01T08:25:34.764Z,965.69
2016-08-01T08:26:34.764Z,965.7
2016-08-01T08:27:34.773Z,965.71
2016-08-01T08:28:34.790Z,965.69
2016-08-01T08:29:34.799Z,965.72
2016-08-01T08:30:34.798Z,965.68
2016-08-01T08:31:34.805Z,965.66
2016-08-01T08:32:34.820Z,965.63
2016-08-01T08:33:34.821Z,965.65
2016-08-01T08:34:34.831Z,965.62
2016-08-01T08:35:34.836Z,965.64
2016-08-01T08:36:34.841Z,965.61
2016-08-01T08:37:34.858Z,965.65
2016-08-01T08:38:34.861Z,965.65
2016-08-01T08:39:34.872Z,965.65
2016-08-01T08:40:34.874Z,965.67
2016-08-01T08:41:34.890Z,965.68
2016-08-01T08:42:34.890Z,965.71
2016-08-01T08:43:34.904Z,965.68
2016-08-01T08:44:34.911Z,965.7
2016-08-01T08:45:34.913Z,965.69
2016-08-01T08:46:34.921Z,965.69
2016-08-01T08:47:34.939Z,965.69
2016-08-01T08:48:34.935Z,965.71
2016-08-01T08:49:34.944Z,965.69
2016-08-01T08:50:34.960Z,965.68
2016-08-01T08:51:34.964Z,965.7
2016-08-01T08:52:34.972Z,965.67
2016-08-01T08:53:34.984Z,965.7
2016-08-01T08:54:34.985Z,965.69
2016-08-01T08:55:35.002Z,965.65
2016-08-01T08:56:35.003Z,965.66
2016-08-01T08:57:35.011Z,965.67
2016-08-01T08:58:35.026Z,965.66
2016-08-01T08:59:35.027Z,965.7
2016-08-01T09:00:35.039Z,965.67
2016-08-01T09:01:35.048Z,965.63
2016-08-01T09:02:35.050Z,965.6
2016-08-01T09:03:35.057Z,965.67
2016-08-01T09:04:35.069Z,965.64
2016-08-01T09:05:35.076Z,965.67
2016-08-01T09:06:35.080Z,965.68
2016-08-01T09:07:35.100Z,965.7
2016-08-01T09:08:35.104Z,965.67
2016-08-01T09:09:35.108Z,965.72
2016-08-01T09:10:35.120Z,965.72
2016-08-01T09:11:35.125Z,965.68
2016-08-01T09:12:35.131Z,965.68
2016-08-01T09:13:35.139Z,965.68
2016-08-01T09:14:35.153Z,965.64
2016-08-01T09:15:35.156Z,965.66
2016-08-01T09:16:35.168Z,965.65
2016-08-01T09:17:35.189Z,965.63
2016-08-01T09:18:35.190Z,965.59
2016-08-01T09:19:35.192Z,965.56
2016-08-01T09:20:35.203Z,965.59
2016-08-01T09:21:35.203Z,965.63
2016-08-01T09:22:35.219Z,965.61
2016-08-01T09:23:35.222Z,965.61
2016-08-01T09:24:35.229Z,965.61
2016-08-01T09:25:35.236Z,965.59
2016-08-01T09:26:35.253Z,965.61
2016-08-01T09:27:35.260Z,965.63
2016-08-01T09:28:35.273Z,965.6
2016-08-01T09:29:35.271Z,965.6
2016-08-01T09:30:35.282Z,965.6
2016-08-01T09:31:35.294Z,965.57
2016-08-01T09:32:35.296Z,965.58
2016-08-01T09:33:35.303Z,965.58
2016-08-01T09:34:35.318Z,965.63
2016-08-01T09:35:35.321Z,965.63
2016-08-01T09:36:35.330Z,965.66
2016-08-01T09:37:35.338Z,965.67
2016-08-01T09:38:35.351Z,965.71
2016-08-01T09:39:35.357Z,965.73
2016-08-01T09:40:35.366Z,965.69
2016-08-01T09:41:35.375Z,965.63
2016-08-01T09:42:35.378Z,965.65
2016-08-01T09:43:35.390Z,965.68
2016-08-01T09:44:35.398Z,965.64
2016-08-01T09:45:35.407Z,965.63
2016-08-01T09:46:35.410Z,965.62
2016-08-01T09:47:35.424Z,965.62
2016-08-01T09:48:35.432Z,965.63
2016-08-01T09:49:35.439Z,965.64
2016-08-01T09:50:35.443Z,965.64
2016-08-01T09:51:35.451Z,965.65
2016-08-01T09:52:35.463Z,965.6
2016-08-01T09:53:35.472Z,965.67
2016-08-01T09:54:35.483Z,965.65
2016-08-01T09:55:35.486Z,965.62
2016-08-01T09:56:35.492Z,965.61
2016-08-01T09:57:35.501Z,965.68
2016-08-01T09:58:35.509Z,965.66
2016-08-01T09:59:35.517Z,965.68
2016-08-01T10:00:35.526Z,965.68
2016-08-01T10:01:35.534Z,965.68
2016-08-01T10:02:35.540Z,965.66
2016-08-01T10:03:35.551Z,965.67
2016-08-01T10:04:35.568Z,965.7
2016-08-01T10:05:35.568Z,965.72
2016-08-01T10:06:35.582Z,965.73
2016-08-01T10:07:35.589Z,965.74
2016-08-01T10:08:35.599Z,965.71
2016-08-01T10:09:35.601Z,965.72
2016-08-01T10:10:35.607Z,965.71
2016-08-01T10:11:35.622Z,965.67
2016-08-01T10:12:35.634Z,965.69
2016-08-01T10:13:35.638Z,965.71
2016-08-01T10:14:35.653Z,965.7
2016-08-01T10:15:35.657Z,965.73
2016-08-01T10:16:35.657Z,965.75
2016-08-01T10:17:35.666Z,965.77
2016-08-01T10:18:35.684Z,965.77
2016-08-01T10:19:35.688Z,965.78
2016-08-01T10:20:35.704Z,965.78
2016-08-01T10:21:35.699Z,965.82
2016-08-01T10:22:35.710Z,965.8
2016-08-01T10:23:35.718Z,965.75
2016-08-01T10:24:35.727Z,965.83
2016-08-01T10:25:35.742Z,965.77
2016-08-01T10:26:35.743Z,965.77
2016-08-01T10:27:35.759Z,965.75
2016-08-01T10:28:35.767Z,965.69
2016-08-01T10:29:35.766Z,965.69
2016-08-01T10:30:35.786Z,965.69
2016-08-01T10:31:35.783Z,965.66
2016-08-01T10:32:35.793Z,965.67
2016-08-01T10:33:35.810Z,965.7
2016-08-01T10:34:35.819Z,965.69
2016-08-01T10:35:35.826Z,965.71
2016-08-01T10:36:35.834Z,965.73
2016-08-01T10:37:35.832Z,965.66
2016-08-01T10:38:35.843Z,965.7
2016-08-01T10:39:35.850Z,965.69
2016-08-01T10:40:35.866Z,965.66
2016-08-01T10:41:35.873Z,965.63
2016-08-01T10:42:35.874Z,965.69
2016-08-01T10:43:35.885Z,965.66
2016-08-01T10:44:35.892Z,965.65
2016-08-01T10:45:35.907Z,965.67
2016-08-01T10:46:35.912Z,965.68
2016-08-01T10:47:35.916Z,965.63
2016-08-01T10:48:35.932Z,965.62
2016-08-01T10:49:35.939Z,965.64
2016-08-01T10:51:35.949Z,965.63
2016-08-01T10:52:35.956Z,965.58
2016-08-01T10:53:35.974Z,965.65
2016-08-01T10:54:35.981Z,965.66
2016-08-01T10:55:35.988Z,965.62
2016-08-01T10:56:35.999Z,965.65
2016-08-01T10:57:35.994Z,965.66
2016-08-01T10:58:36.011Z,965.65
2016-08-01T10:59:36.020Z,965.64
2016-08-01T11:00:36.021Z,965.65
2016-08-01T11:01:36.039Z,965.64
2016-08-01T11:02:36.037Z,965.58
2016-08-01T11:03:36.045Z,965.6
2016-08-01T11:04:36.055Z,965.58
2016-08-01T11:06:36.078Z,965.63
2016-08-01T11:07:36.088Z,965.6
2016-08-01T11:08:36.087Z,965.62
2016-08-01T11:09:36.102Z,965.6
2016-08-01T11:10:36.111Z,965.58
2016-08-01T11:11:36.109Z,965.56
2016-08-01T11:12:36.128Z,965.6
2016-08-01T11:13:36.129Z,965.54
2016-08-01T11:14:36.145Z,965.55
2016-08-01T11:15:36.151Z,965.54
2016-08-01T11:16:36.161Z,965.57
2016-08-01T11:17:36.167Z,965.57
2016-08-01T11:18:36.170Z,965.56
2016-08-01T11:19:36.178Z,965.53
2016-08-01T11:21:36.191Z,965.58
2016-08-01T11:22:36.208Z,965.58
2016-08-01T11:23:36.209Z,965.61
2016-08-01T11:24:36.223Z,965.57
2016-08-01T11:25:36.236Z,965.6
2016-08-01T11:26:36.232Z,965.57
2016-08-01T11:27:36.250Z,965.57
2016-08-01T11:28:36.256Z,965.53
2016-08-01T11:29:36.267Z,965.53
2016-08-01T11:30:36.266Z,965.51
2016-08-01T11:31:36.271Z,965.56
2016-08-01T11:32:36.281Z,965.46
2016-08-01T11:33:36.290Z,965.48
2016-08-01T11:34:36.303Z,965.47
2016-08-01T11:35:36.305Z,965.46
2016-08-01T11:36:36.312Z,965.47
2016-08-01T11:37:36.326Z,965.47
2016-08-01T11:38:36.330Z,965.45
2016-08-01T11:39:36.341Z,965.49
2016-08-01T11:40:36.351Z,965.54
2016-08-01T11:41:36.351Z,965.53
2016-08-01T11:42:36.368Z,965.54
2016-08-01T11:43:36.373Z,965.53
2016-08-01T11:44:36.379Z,965.53
2016-08-01T11:45:36.394Z,965.5
2016-08-01T11:46:36.392Z,965.53
2016-08-01T11:47:36.425Z,965.5
2016-08-01T11:48:36.413Z,965.46
2016-08-01T11:49:36.422Z,965.5
2016-08-01T11:50:36.629Z,965.5
2016-08-01T11:51:36.434Z,965.47
2016-08-01T11:52:36.448Z,965.5
2016-08-01T11:53:36.445Z,965.5
2016-08-01T11:54:36.451Z,965.48
2016-08-01T11:55:36.461Z,965.49
2016-08-01T11:56:36.474Z,965.49
2016-08-01T11:57:36.477Z,965.49
2016-08-01T11:58:36.488Z,965.51
2016-08-01T11:59:36.490Z,965.51
2016-08-01T12:00:36.500Z,965.52
2016-08-01T12:01:36.511Z,965.45
2016-08-01T12:02:36.514Z,965.46
2016-08-01T12:03:36.529Z,965.43
2016-08-01T12:04:36.536Z,965.44
2016-08-01T12:05:36.536Z,965.42
2016-08-01T12:06:36.547Z,965.4
2016-08-01T12:07:36.550Z,965.41
2016-08-01T12:08:36.565Z,965.36
2016-08-01T12:09:36.568Z,965.39
2016-08-01T12:10:36.587Z,965.37
2016-08-01T12:11:36.597Z,965.44
2016-08-01T12:12:36.593Z,965.41
2016-08-01T12:13:36.605Z,965.4
2016-08-01T12:14:36.606Z,965.4
2016-08-01T12:15:36.622Z,965.38
2016-08-01T12:16:36.623Z,965.35
2016-08-01T12:17:36.640Z,965.38
2016-08-01T12:18:36.641Z,965.37
2016-08-01T12:19:36.646Z,965.38
2016-08-01T12:20:36.661Z,965.4
2016-08-01T12:21:36.661Z,965.36
2016-08-01T12:22:36.669Z,965.37
2016-08-01T12:23:36.682Z,965.37
2016-08-01T12:24:36.690Z,965.4
2016-08-01T12:25:36.700Z,965.38
2016-08-01T12:26:36.707Z,965.39
2016-08-01T12:27:36.715Z,965.4
2016-08-01T12:28:36.719Z,965.4
2016-08-01T12:29:36.731Z,965.4
2016-08-01T12:30:36.735Z,965.4
2016-08-01T12:31:36.746Z,965.43
2016-08-01T12:32:36.753Z,965.28
2016-08-01T12:33:36.754Z,965.34
2016-08-01T12:34:36.768Z,965.34
2016-08-01T12:35:36.771Z,965.3
2016-08-01T12:36:36.785Z,965.34
2016-08-01T12:37:36.791Z,965.39
2016-08-01T12:38:36.792Z,965.4
2016-08-01T12:39:36.800Z,965.33
2016-08-01T12:40:36.823Z,965.33
2016-08-01T12:41:36.822Z,965.36
2016-08-01T12:42:36.833Z,965.37
2016-08-01T12:43:36.832Z,965.37